Time;durP1;ratioP1;P1;durP2;ratioP2;P2;SDS_P1;SDS_P2;PMS_P1;PMS_P2;Temp;Humidity;BMP_temperature;BMP_pressure;BME280_temperature;BME280_humidity;BME280_pressure;Samples;Min_cycle;Max_cycle;Signal;HPM_P1;HPM_P2
2020/12/24 00:00:31;;;;;;;9.15;2.13;;;10.30;94.10;;;;;;5031624;28;20109;-75
2020/12/24 00:02:57;;;;;;;4.22;2.05;;;10.30;94.00;;;;;;5013648;28;20135;-75
2020/12/24 00:05:23;;;;;;;4.40;2.10;;;10.20;94.00;;;;;;5013025;28;20128;-74
2020/12/24 00:07:48;;;;;;;5.20;2.00;;;10.30;94.00;;;;;;5013766;28;20061;-74
2020/12/24 00:10:14;;;;;;;4.00;1.58;;;10.20;93.70;;;;;;5031045;28;20029;-74
2020/12/24 00:12:40;;;;;;;4.40;1.58;;;10.20;93.80;;;;;;5031002;28;20029;-75
2020/12/24 00:15:09;;;;;;;2.17;1.10;;;10.20;93.90;;;;;;5030497;28;20033;-75
2020/12/24 00:17:36;;;;;;;3.67;1.60;;;10.10;93.90;;;;;;5033163;28;20029;-77
2020/12/24 00:20:04;;;;;;;5.07;1.75;;;10.10;94.00;;;;;;5015702;28;20034;-75
2020/12/24 00:22:29;;;;;;;4.63;1.83;;;10.20;94.10;;;;;;5015776;28;20498;-73
2020/12/24 00:24:55;;;;;;;5.93;1.92;;;10.20;94.10;;;;;;5033753;28;20025;-72
2020/12/24 00:27:20;;;;;;;4.25;1.40;;;10.20;94.10;;;;;;5033093;28;20367;-71
2020/12/24 00:29:46;;;;;;;3.80;1.50;;;10.20;94.20;;;;;;5034151;28;20503;-71
2020/12/24 00:32:11;;;;;;;5.32;1.60;;;10.30;94.50;;;;;;5034040;28;20436;-71
2020/12/24 00:34:37;;;;;;;6.70;1.80;;;10.30;94.60;;;;;;5015557;28;20548;-75
2020/12/24 00:37:02;;;;;;;6.32;1.90;;;10.30;94.30;;;;;;5032249;28;20140;-72
2020/12/24 00:39:28;;;;;;;6.20;1.83;;;10.30;94.30;;;;;;5022490;28;20077;-73
2020/12/24 00:41:54;;;;;;;6.03;2.20;;;10.30;94.30;;;;;;5013310;28;20026;-71
2020/12/24 00:44:20;;;;;;;8.68;2.35;;;10.30;94.40;;;;;;5014432;28;20381;-72
2020/12/24 00:46:46;;;;;;;5.20;2.00;;;10.30;94.40;;;;;;5033711;28;20128;-75
2020/12/24 00:49:11;;;;;;;5.45;2.20;;;10.30;94.30;;;;;;5037419;28;20100;-71
2020/12/24 00:51:37;;;;;;;20.70;3.33;;;10.30;94.40;;;;;;5038212;28;20021;-72
2020/12/24 00:54:03;;;;;;;4.28;1.95;;;10.30;94.40;;;;;;5015027;28;20355;-71
2020/12/24 00:56:28;;;;;;;3.72;2.15;;;10.30;94.50;;;;;;5034102;28;20529;-71
2020/12/24 00:58:54;;;;;;;5.35;2.13;;;10.30;94.50;;;;;;5033292;28;20029;-72
2020/12/24 01:01:19;;;;;;;5.43;2.28;;;10.30;94.50;;;;;;5015609;28;20025;-71
2020/12/24 01:03:45;;;;;;;4.03;2.20;;;10.30;94.50;;;;;;5033588;28;20013;-72
2020/12/24 01:06:10;;;;;;;10.15;2.58;;;10.30;94.60;;;;;;5033361;28;20369;-72
2020/12/24 01:08:36;;;;;;;3.95;2.13;;;10.30;94.70;;;;;;5032865;28;20033;-72
2020/12/24 01:11:02;;;;;;;5.78;1.90;;;10.30;94.60;;;;;;5015685;28;20021;-72
2020/12/24 01:13:27;;;;;;;6.72;2.08;;;10.30;94.50;;;;;;5033790;28;20029;-73
2020/12/24 01:15:53;;;;;;;6.95;2.15;;;10.30;94.60;;;;;;5015070;28;20028;-71
2020/12/24 01:18:18;;;;;;;9.98;2.83;;;10.30;94.50;;;;;;5015714;28;20510;-72
2020/12/24 01:20:44;;;;;;;9.38;2.50;;;10.30;94.50;;;;;;5015901;28;20132;-74
2020/12/24 01:23:10;;;;;;;6.65;2.45;;;10.30;94.40;;;;;;5032458;28;20386;-71
2020/12/24 01:25:36;;;;;;;10.77;2.30;;;10.20;94.30;;;;;;5014882;28;20029;-70
2020/12/24 01:28:01;;;;;;;13.30;2.20;;;10.20;94.20;;;;;;5033018;28;20030;-71
2020/12/24 01:30:27;;;;;;;8.73;2.40;;;10.20;94.10;;;;;;5014878;28;20017;-71
2020/12/24 01:32:53;;;;;;;7.28;2.42;;;10.20;94.00;;;;;;5033004;28;20425;-74
2020/12/24 01:35:19;;;;;;;8.85;1.92;;;10.20;93.90;;;;;;5033129;28;20022;-71
2020/12/24 01:37:44;;;;;;;8.73;2.58;;;10.20;93.80;;;;;;5014750;28;20014;-72
2020/12/24 01:40:10;;;;;;;9.40;2.40;;;10.10;93.70;;;;;;5032801;28;20442;-72
2020/12/24 01:42:35;;;;;;;6.28;2.03;;;10.10;93.70;;;;;;5015097;28;20032;-73
2020/12/24 01:45:01;;;;;;;8.02;2.28;;;10.10;93.60;;;;;;5032259;28;20021;-72
2020/12/24 01:47:26;;;;;;;7.80;2.08;;;10.00;93.40;;;;;;5032868;28;20077;-72
2020/12/24 01:49:52;;;;;;;6.75;2.00;;;10.00;93.30;;;;;;5032620;28;20053;-71
2020/12/24 01:52:38;;;;;;;6.55;1.83;;;9.90;93.20;;;;;;5014619;28;20044;-72
2020/12/24 01:55:06;;;;;;;6.63;1.73;;;9.90;93.20;;;;;;5032620;28;20025;-72
2020/12/24 01:57:32;;;;;;;4.10;1.60;;;9.90;93.30;;;;;;5032381;28;20100;-72
2020/12/24 01:59:58;;;;;;;7.03;2.55;;;10.00;93.30;;;;;;5032608;28;20125;-72
2020/12/24 02:02:23;;;;;;;5.82;1.80;;;9.90;93.30;;;;;;5032831;28;20474;-73
2020/12/24 02:04:49;;;;;;;7.25;2.20;;;9.90;93.40;;;;;;5032448;28;20047;-72
2020/12/24 02:07:17;;;;;;;4.30;1.60;;;10.00;93.40;;;;;;5032536;28;20074;-73
2020/12/24 02:09:48;;;;;;;5.43;1.50;;;10.00;93.40;;;;;;5015174;28;20026;-73
2020/12/24 02:12:13;;;;;;;13.00;2.13;;;9.90;93.30;;;;;;5031852;28;20029;-73
2020/12/24 02:14:40;;;;;;;6.55;1.98;;;9.90;93.50;;;;;;5032897;28;20029;-73
2020/12/24 02:17:06;;;;;;;7.05;2.38;;;9.90;93.40;;;;;;5032350;28;20025;-71
2020/12/24 02:19:31;;;;;;;7.05;1.60;;;9.90;93.40;;;;;;5014287;28;20033;-71
2020/12/24 02:21:57;;;;;;;8.07;1.83;;;9.90;93.40;;;;;;5032271;28;20021;-70
2020/12/24 02:24:22;;;;;;;8.30;2.08;;;9.90;93.50;;;;;;5032879;28;20563;-71
2020/12/24 02:26:48;;;;;;;8.50;2.20;;;9.90;93.50;;;;;;5032045;28;20029;-69
2020/12/24 02:29:13;;;;;;;8.50;2.35;;;9.90;93.60;;;;;;5032500;28;20451;-71
2020/12/24 02:31:39;;;;;;;7.25;1.60;;;9.90;93.40;;;;;;5032979;28;20071;-71
2020/12/24 02:34:04;;;;;;;6.97;2.20;;;9.90;93.40;;;;;;5032079;28;20046;-73
2020/12/24 02:36:30;;;;;;;8.45;2.03;;;9.80;93.40;;;;;;5035461;28;20100;-72
2020/12/24 02:38:55;;;;;;;9.85;1.83;;;9.80;93.50;;;;;;5040847;28;20064;-71
2020/12/24 02:41:21;;;;;;;8.60;2.10;;;9.80;93.50;;;;;;5027371;28;20060;-71
2020/12/24 02:43:49;;;;;;;6.50;2.55;;;9.90;93.50;;;;;;5049183;28;20028;-71
2020/12/24 02:46:16;;;;;;;9.43;2.17;;;9.90;93.50;;;;;;5043981;28;20045;-72
2020/12/24 02:48:41;;;;;;;10.23;2.30;;;9.90;93.50;;;;;;5033974;28;20041;-72
2020/12/24 02:51:08;;;;;;;7.82;2.00;;;9.90;93.40;;;;;;5034768;28;20056;-71
2020/12/24 02:53:34;;;;;;;3.92;1.83;;;9.80;93.40;;;;;;5017715;28;20078;-75
2020/12/24 02:55:59;;;;;;;12.35;2.28;;;9.80;93.40;;;;;;5035497;28;20025;-72
2020/12/24 02:58:25;;;;;;;10.85;2.00;;;9.90;93.40;;;;;;5035928;28;20025;-73
2020/12/24 03:00:50;;;;;;;11.68;2.30;;;9.90;93.30;;;;;;5017598;28;20040;-73
2020/12/24 03:03:16;;;;;;;7.82;2.00;;;9.80;93.40;;;;;;5035700;28;20355;-72
2020/12/24 03:05:42;;;;;;;6.70;2.15;;;9.80;93.40;;;;;;5036238;28;20536;-72
2020/12/24 03:08:08;;;;;;;8.63;2.58;;;9.80;93.30;;;;;;5017330;28;20025;-72
2020/12/24 03:10:33;;;;;;;10.43;2.17;;;9.80;93.20;;;;;;5018310;28;20026;-72
2020/12/24 03:12:59;;;;;;;8.18;2.45;;;9.80;93.20;;;;;;5035401;28;20462;-72
2020/12/24 03:15:24;;;;;;;10.07;2.22;;;9.80;93.20;;;;;;5035216;28;20032;-72
2020/12/24 03:17:50;;;;;;;8.82;2.13;;;9.80;93.40;;;;;;5035666;28;20485;-72
2020/12/24 03:20:16;;;;;;;8.48;2.00;;;9.80;93.40;;;;;;5035472;28;20042;-74
2020/12/24 03:22:42;;;;;;;9.23;2.60;;;9.90;93.40;;;;;;5017163;28;20013;-75
2020/12/24 03:25:08;;;;;;;15.13;3.45;;;9.90;93.40;;;;;;5035335;28;20087;-73
2020/12/24 03:27:33;;;;;;;9.18;2.38;;;9.90;93.30;;;;;;5035440;28;20021;-72
2020/12/24 03:29:59;;;;;;;9.52;2.40;;;9.90;93.30;;;;;;5034719;28;20021;-73
2020/12/24 03:32:24;;;;;;;11.20;2.65;;;9.90;93.30;;;;;;5035578;28;20021;-73
2020/12/24 03:34:50;;;;;;;10.10;2.25;;;9.90;93.30;;;;;;5035820;28;20022;-76
2020/12/24 03:37:16;;;;;;;6.65;1.80;;;9.80;93.30;;;;;;5016655;28;20021;-73
2020/12/24 03:39:41;;;;;;;9.25;2.90;;;9.80;93.40;;;;;;5035291;28;20029;-73
2020/12/24 03:42:09;;;;;;;9.65;2.63;;;9.70;93.40;;;;;;5034934;28;20025;-73
2020/12/24 03:44:34;;;;;;;13.45;2.92;;;9.70;93.40;;;;;;5034725;28;20017;-74
2020/12/24 03:47:00;;;;;;;17.98;3.50;;;9.80;93.50;;;;;;5016705;28;20520;-73
2020/12/24 03:49:26;;;;;;;12.20;2.13;;;9.70;93.40;;;;;;5034282;28;20112;-73
2020/12/24 03:51:51;;;;;;;12.50;2.70;;;9.70;93.40;;;;;;5034367;28;20164;-72
2020/12/24 03:54:17;;;;;;;11.57;2.47;;;9.70;93.50;;;;;;5035043;28;20034;-72
2020/12/24 03:56:42;;;;;;;14.63;3.42;;;9.70;93.40;;;;;;5035120;28;20047;-76
2020/12/24 03:59:08;;;;;;;9.35;2.45;;;9.70;93.40;;;;;;5016244;28;20026;-73
2020/12/24 04:01:33;;;;;;;10.77;2.33;;;9.70;93.50;;;;;;5017271;28;20029;-73
2020/12/24 04:03:59;;;;;;;12.65;2.50;;;9.70;93.50;;;;;;5016172;28;20144;-72
2020/12/24 04:06:24;;;;;;;12.63;3.20;;;9.70;93.50;;;;;;5017140;28;20029;-71
2020/12/24 04:08:50;;;;;;;10.98;2.60;;;9.70;93.50;;;;;;5034886;28;20026;-73
2020/12/24 04:11:15;;;;;;;9.27;2.25;;;9.70;93.40;;;;;;5033855;28;20102;-77
2020/12/24 04:13:41;;;;;;;8.35;2.45;;;9.70;93.40;;;;;;5034744;28;20091;-72
2020/12/24 04:16:06;;;;;;;11.60;2.90;;;9.70;93.40;;;;;;5016890;28;20544;-73
2020/12/24 04:18:32;;;;;;;14.63;2.88;;;9.70;93.50;;;;;;5034177;28;20057;-72
2020/12/24 04:20:58;;;;;;;15.40;2.55;;;9.70;93.60;;;;;;5034492;28;20142;-72
2020/12/24 04:23:23;;;;;;;14.32;2.65;;;9.70;93.50;;;;;;5034899;28;20363;-76
2020/12/24 04:25:49;;;;;;;9.63;2.67;;;9.70;93.50;;;;;;5033772;28;20030;-73
2020/12/24 04:28:15;;;;;;;8.50;2.30;;;9.70;93.60;;;;;;5034123;28;20096;-76
2020/12/24 04:30:43;;;;;;;9.85;2.45;;;9.70;93.50;;;;;;5016782;28;20029;-79
2020/12/24 04:33:09;;;;;;;11.35;2.85;;;9.70;93.60;;;;;;5033450;28;20025;-73
2020/12/24 04:35:34;;;;;;;11.18;3.13;;;9.70;93.50;;;;;;5034656;28;20075;-73
2020/12/24 04:38:00;;;;;;;10.02;2.88;;;9.70;93.60;;;;;;5034105;28;20097;-76
2020/12/24 04:40:25;;;;;;;10.50;2.75;;;9.80;93.60;;;;;;5033369;28;20402;-74
2020/12/24 04:42:53;;;;;;;10.63;3.08;;;9.80;93.90;;;;;;5034153;28;20041;-77
2020/12/24 04:45:20;;;;;;;12.35;2.72;;;9.80;93.70;;;;;;5034082;28;20049;-72
2020/12/24 04:47:46;;;;;;;11.40;2.50;;;9.80;93.50;;;;;;5015518;28;20083;-72
2020/12/24 04:50:13;;;;;;;18.65;4.03;;;9.70;93.50;;;;;;5034139;28;20449;-71
2020/12/24 04:52:38;;;;;;;5.80;1.80;;;9.70;93.60;;;;;;5033839;28;20025;-72
2020/12/24 04:55:05;;;;;;;4.28;1.17;;;9.50;92.20;;;;;;5033046;28;20034;-71
2020/12/24 04:57:31;;;;;;;1.95;0.90;;;9.30;91.50;;;;;;5034355;28;20497;-71
2020/12/24 04:59:58;;;;;;;3.17;0.90;;;8.90;91.90;;;;;;5033293;28;20056;-71
2020/12/24 05:02:24;;;;;;;1.63;0.80;;;8.60;92.00;;;;;;5033049;28;20032;-72
2020/12/24 05:04:53;;;;;;;0.40;0.40;;;8.10;91.90;;;;;;5033737;28;20030;-70
2020/12/24 05:07:18;;;;;;;0.65;0.60;;;7.80;92.10;;;;;;5032824;28;20064;-71
2020/12/24 05:09:44;;;;;;;0.73;0.60;;;7.30;92.10;;;;;;5033733;28;20026;-71
2020/12/24 05:12:09;;;;;;;1.73;0.63;;;7.00;92.70;;;;;;5033350;28;20100;-71
2020/12/24 05:14:39;;;;;;;0.60;0.60;;;6.80;93.10;;;;;;5032797;28;20044;-71
2020/12/24 05:17:06;;;;;;;1.48;0.63;;;6.70;93.20;;;;;;5033124;28;20052;-71
2020/12/24 05:19:33;;;;;;;0.63;0.50;;;6.50;93.40;;;;;;5015677;28;20036;-71
2020/12/24 05:22:09;;;;;;;0.50;0.50;;;6.40;93.60;;;;;;5014667;28;20026;-71
2020/12/24 05:24:34;;;;;;;0.50;0.50;;;6.20;93.60;;;;;;5033238;28;20029;-71
2020/12/24 05:27:08;;;;;;;0.60;0.60;;;6.10;93.60;;;;;;5015470;28;20075;-71
2020/12/24 05:29:37;;;;;;;1.08;0.80;;;6.00;94.00;;;;;;5032457;28;20083;-72
2020/12/24 05:32:02;;;;;;;0.60;0.60;;;5.90;94.10;;;;;;5032830;28;20049;-71
2020/12/24 05:34:28;;;;;;;3.13;0.70;;;5.80;93.90;;;;;;5033281;28;20068;-74
2020/12/24 05:37:12;;;;;;;0.45;0.45;;;5.70;94.10;;;;;;5031951;28;20351;-72
2020/12/24 05:39:38;;;;;;;0.95;0.60;;;5.70;94.50;;;;;;5032982;28;20033;-72
2020/12/24 05:42:05;;;;;;;1.65;0.63;;;5.70;94.30;;;;;;5032694;28;20021;-70
2020/12/24 05:44:31;;;;;;;0.70;0.68;;;5.60;94.20;;;;;;5014657;28;20041;-71
2020/12/24 05:46:57;;;;;;;0.60;0.60;;;5.50;94.10;;;;;;5014663;28;20045;-71
2020/12/24 05:49:24;;;;;;;1.08;0.55;;;5.50;94.30;;;;;;5032265;28;20041;-72
2020/12/24 05:51:57;;;;;;;0.50;0.50;;;5.40;94.30;;;;;;5015048;28;20029;-71
2020/12/24 05:54:23;;;;;;;2.20;0.80;;;5.40;94.20;;;;;;5033002;28;20017;-72
2020/12/24 05:56:49;;;;;;;1.25;0.80;;;5.30;94.30;;;;;;5032035;28;20067;-72
2020/12/24 05:59:23;;;;;;;0.70;0.70;;;5.30;94.30;;;;;;5014780;28;20482;-73
2020/12/24 06:02:14;;;;;;;0.55;0.50;;;5.30;94.50;;;;;;5015243;28;20029;-72
2020/12/24 06:04:46;;;;;;;0.60;0.60;;;5.30;94.10;;;;;;5018541;28;20037;-72
2020/12/24 06:07:21;;;;;;;2.30;0.70;;;5.20;94.30;;;;;;5032362;28;20453;-72
2020/12/24 06:09:51;;;;;;;2.55;0.73;;;5.10;94.40;;;;;;5032846;28;20029;-72
2020/12/24 06:12:24;;;;;;;0.63;0.63;;;5.10;94.70;;;;;;5032571;28;20036;-71
2020/12/24 06:14:57;;;;;;;0.60;0.60;;;5.10;94.70;;;;;;5019288;28;20025;-73
2020/12/24 06:17:25;;;;;;;0.70;0.70;;;5.10;94.70;;;;;;5019117;28;20034;-71
2020/12/24 06:19:51;;;;;;;0.77;0.70;;;5.20;94.90;;;;;;5018729;28;20486;-72
2020/12/24 06:22:18;;;;;;;1.33;0.90;;;5.30;95.00;;;;;;5019428;28;20448;-71
2020/12/24 06:24:46;;;;;;;1.58;0.90;;;5.30;94.90;;;;;;5035987;28;20076;-71
2020/12/24 06:27:21;;;;;;;1.52;0.68;;;5.30;94.90;;;;;;5018354;28;20037;-70
2020/12/24 06:29:50;;;;;;;0.60;0.60;;;5.30;94.70;;;;;;5036412;28;20025;-70
2020/12/24 06:32:18;;;;;;;1.85;0.70;;;5.20;94.50;;;;;;5035444;28;20025;-70
2020/12/24 06:34:44;;;;;;;0.70;0.70;;;5.20;94.60;;;;;;5036481;28;20049;-69
2020/12/24 06:37:14;;;;;;;0.80;0.80;;;5.20;94.70;;;;;;5036209;28;20056;-71
2020/12/24 06:39:44;;;;;;;0.70;0.70;;;5.20;94.90;;;;;;5035799;28;20553;-73
2020/12/24 06:42:37;;;;;;;0.88;0.88;;;5.20;94.70;;;;;;5035979;28;20136;-73
2020/12/24 06:45:05;;;;;;;1.23;0.75;;;5.20;94.80;;;;;;5018603;28;20030;-74
2020/12/24 06:47:31;;;;;;;0.80;0.80;;;5.30;94.80;;;;;;5017604;28;20128;-72
2020/12/24 06:49:56;;;;;;;0.88;0.80;;;5.30;94.80;;;;;;5036106;28;20109;-72
2020/12/24 06:52:29;;;;;;;1.25;1.00;;;5.30;94.70;;;;;;5035743;28;20033;-70
2020/12/24 06:55:14;;;;;;;2.08;1.00;;;5.30;94.90;;;;;;5017299;28;20386;-71
2020/12/24 06:57:44;;;;;;;1.95;0.85;;;5.30;95.20;;;;;;5036198;28;20471;-70
2020/12/24 07:00:24;;;;;;;1.60;0.90;;;5.30;95.00;;;;;;5017495;28;20040;-70
2020/12/24 07:02:50;;;;;;;1.02;0.82;;;5.30;94.80;;;;;;5035819;28;20500;-70
2020/12/24 07:05:38;;;;;;;1.10;1.10;;;5.30;94.90;;;;;;5035725;28;20533;-72
2020/12/24 07:08:03;;;;;;;0.77;0.77;;;5.40;95.00;;;;;;5030289;28;20029;-70
2020/12/24 07:10:46;;;;;;;0.88;0.88;;;5.50;94.90;;;;;;5035661;28;20032;-70
2020/12/24 07:13:38;;;;;;;2.13;0.80;;;5.50;95.00;;;;;;5035388;28;20132;-70
2020/12/24 07:16:04;;;;;;;1.80;0.98;;;5.60;94.80;;;;;;5034533;28;20033;-70
2020/12/24 07:18:31;;;;;;;2.72;1.40;;;5.70;94.70;;;;;;5035593;28;20026;-70
2020/12/24 07:21:06;;;;;;;1.45;0.90;;;5.70;94.70;;;;;;5014323;28;20049;-74
2020/12/24 07:23:34;;;;;;;0.80;0.80;;;5.80;94.50;;;;;;5017991;28;20035;-74
2020/12/24 07:26:08;;;;;;;2.20;1.00;;;5.80;94.50;;;;;;5047167;28;20105;-71
2020/12/24 07:28:41;;;;;;;1.00;0.95;;;5.80;94.50;;;;;;5034818;28;20022;-71
2020/12/24 07:31:08;;;;;;;1.20;1.10;;;5.90;94.40;;;;;;5016924;28;20021;-72
2020/12/24 07:33:36;;;;;;;1.10;1.00;;;5.90;94.40;;;;;;5035351;28;20035;-70
2020/12/24 07:36:06;;;;;;;1.45;1.00;;;6.00;94.40;;;;;;5034369;28;20496;-71
2020/12/24 07:38:31;;;;;;;0.90;0.90;;;6.00;94.10;;;;;;5027910;28;20032;-72
2020/12/24 07:40:57;;;;;;;1.40;0.93;;;5.90;93.90;;;;;;5024479;28;21285;-71
2020/12/24 07:43:26;;;;;;;1.13;0.90;;;5.90;94.00;;;;;;5033523;28;20021;-71
2020/12/24 07:45:52;;;;;;;1.10;1.00;;;5.80;94.20;;;;;;5012914;28;20516;-71
2020/12/24 07:48:22;;;;;;;1.90;0.98;;;5.90;94.40;;;;;;5055076;28;20041;-71
2020/12/24 07:50:50;;;;;;;3.00;1.42;;;5.90;94.50;;;;;;5047140;28;20022;-73
2020/12/24 07:53:17;;;;;;;2.03;1.33;;;6.00;94.60;;;;;;5010851;28;20087;-75
2020/12/24 07:55:43;;;;;;;1.90;1.30;;;6.00;94.60;;;;;;5048497;28;20031;-74
2020/12/24 07:58:10;;;;;;;2.15;1.40;;;6.10;94.50;;;;;;5035889;28;20029;-72
2020/12/24 08:00:40;;;;;;;1.67;1.30;;;6.10;94.60;;;;;;5034888;28;20030;-71
2020/12/24 08:03:06;;;;;;;2.33;1.50;;;6.20;94.60;;;;;;5015238;28;20041;-71
2020/12/24 08:05:31;;;;;;;2.00;1.45;;;6.20;94.50;;;;;;5035084;28;20025;-70
2020/12/24 08:07:57;;;;;;;1.40;1.27;;;6.20;94.50;;;;;;5033838;28;20385;-71
2020/12/24 08:10:22;;;;;;;135.20;7.47;;;6.20;94.50;;;;;;5014309;28;20109;-71
2020/12/24 08:12:49;;;;;;;1.70;1.60;;;6.20;94.50;;;;;;5025612;28;20029;-69
2020/12/24 08:15:17;;;;;;;1.40;1.30;;;6.20;94.40;;;;;;5034144;28;20022;-73
2020/12/24 08:18:02;;;;;;;2.78;1.52;;;6.10;94.40;;;;;;5015684;28;20017;-74
2020/12/24 08:20:39;;;;;;;4.10;1.35;;;6.10;94.50;;;;;;5034362;28;20037;-71
2020/12/24 08:23:19;;;;;;;1.73;1.63;;;6.10;94.50;;;;;;5033842;28;20033;-71
2020/12/24 08:25:47;;;;;;;2.75;1.50;;;6.00;94.40;;;;;;5033895;28;20032;-70
2020/12/24 08:28:13;;;;;;;1.50;1.40;;;6.10;94.60;;;;;;5016291;28;20382;-71
2020/12/24 08:30:43;;;;;;;2.50;1.52;;;6.20;94.60;;;;;;5033719;28;20017;-73
2020/12/24 08:33:08;;;;;;;1.30;1.20;;;6.20;94.50;;;;;;5033400;28;20112;-71
2020/12/24 08:35:34;;;;;;;2.67;1.00;;;6.20;94.40;;;;;;5016120;28;20126;-74
2020/12/24 08:38:13;;;;;;;1.60;1.45;;;6.10;94.30;;;;;;5029501;28;20021;-72
2020/12/24 08:40:39;;;;;;;428.40;28.55;;;6.10;94.40;;;;;;5024544;28;20043;-72
2020/12/24 08:43:09;;;;;;;278.42;16.70;;;6.10;94.60;;;;;;5032892;28;20025;-72
2020/12/24 08:46:01;;;;;;;9.50;1.83;;;6.20;94.80;;;;;;5030781;28;20061;-75
2020/12/24 08:48:28;;;;;;;2.40;1.77;;;6.20;94.70;;;;;;5010742;28;20487;-74
2020/12/24 08:50:54;;;;;;;1.27;1.20;;;6.20;94.80;;;;;;5015159;28;20029;-71
2020/12/24 08:53:30;;;;;;;2.58;1.60;;;6.20;94.70;;;;;;5014880;28;20040;-73
2020/12/24 08:55:56;;;;;;;46.75;3.50;;;6.20;94.60;;;;;;5033339;28;20034;-75
2020/12/24 08:58:22;;;;;;;5.22;1.70;;;6.30;94.70;;;;;;5015696;28;20020;-73
2020/12/24 09:00:47;;;;;;;3.25;1.80;;;6.30;94.60;;;;;;5032258;28;20049;-73
2020/12/24 09:03:23;;;;;;;1.73;1.60;;;6.40;94.70;;;;;;5033632;28;20026;-75
2020/12/24 09:05:48;;;;;;;1.73;1.50;;;6.40;94.70;;;;;;5032330;28;20537;-74
2020/12/24 09:08:27;;;;;;;61.53;5.45;;;6.50;94.60;;;;;;5031996;28;20444;-73
2020/12/24 09:10:54;;;;;;;2.55;1.88;;;6.50;94.50;;;;;;5014777;28;20036;-75
2020/12/24 09:13:20;;;;;;;3.55;1.73;;;6.50;94.50;;;;;;5032273;28;20017;-74
2020/12/24 09:15:46;;;;;;;1.77;1.42;;;6.50;94.50;;;;;;5015223;28;20025;-74
2020/12/24 09:18:11;;;;;;;458.30;28.90;;;6.50;94.30;;;;;;4998602;28;20025;-73
2020/12/24 09:20:38;;;;;;;135.18;7.80;;;6.60;94.30;;;;;;5031983;28;20037;-71
2020/12/24 09:23:15;;;;;;;449.00;29.45;;;6.60;94.50;;;;;;5033144;28;20473;-75
2020/12/24 09:25:46;;;;;;;3.97;1.70;;;6.60;94.70;;;;;;5015619;28;20112;-78
2020/12/24 09:28:22;;;;;;;3.83;2.05;;;6.60;94.50;;;;;;5014568;28;20944;-78
2020/12/24 09:30:49;;;;;;;1.67;1.58;;;6.60;94.20;;;;;;5032824;28;20155;-79
2020/12/24 09:33:15;;;;;;;1.92;1.70;;;6.70;94.20;;;;;;5014715;28;20108;-77
2020/12/24 09:35:41;;;;;;;2.33;1.63;;;6.70;94.10;;;;;;5014767;28;20034;-78
2020/12/24 09:38:07;;;;;;;2.80;1.90;;;6.70;94.00;;;;;;5014776;28;20083;-73
2020/12/24 09:40:33;;;;;;;1.80;1.58;;;6.70;94.00;;;;;;5014485;28;20060;-73
2020/12/24 09:42:58;;;;;;;2.78;1.80;;;6.80;94.10;;;;;;4994566;28;20550;-72
2020/12/24 09:45:24;;;;;;;3.53;1.88;;;6.80;94.10;;;;;;5013529;28;20101;-72
2020/12/24 09:47:50;;;;;;;2.60;1.63;;;6.90;94.20;;;;;;5023012;28;20470;-76
2020/12/24 09:50:16;;;;;;;2.95;1.63;;;6.90;93.80;;;;;;5013760;28;20021;-75
2020/12/24 09:52:42;;;;;;;2.47;1.88;;;6.80;93.80;;;;;;5032671;28;20022;-75
2020/12/24 09:55:07;;;;;;;3.88;2.08;;;6.80;93.90;;;;;;5015696;28;20041;-74
2020/12/24 09:57:34;;;;;;;3.75;1.67;;;6.90;93.90;;;;;;5032171;28;20024;-74
2020/12/24 10:00:00;;;;;;;154.25;10.15;;;6.90;93.90;;;;;;5032288;28;20493;-75
2020/12/24 10:02:28;;;;;;;6.68;2.17;;;6.90;93.80;;;;;;5032392;28;20098;-77
2020/12/24 10:04:54;;;;;;;3.60;1.85;;;6.90;94.00;;;;;;5032018;28;20025;-74
2020/12/24 10:07:22;;;;;;;1.73;1.63;;;6.90;93.80;;;;;;5014357;28;20543;-76
2020/12/24 10:09:52;;;;;;;3.08;1.90;;;6.90;93.90;;;;;;5014008;28;20167;-75
2020/12/24 10:12:21;;;;;;;4.00;2.33;;;7.00;93.90;;;;;;5029073;28;20529;-72
2020/12/24 10:14:47;;;;;;;2.58;2.00;;;6.90;93.90;;;;;;5032417;28;20034;-71
2020/12/24 10:17:14;;;;;;;2.10;1.85;;;6.90;94.00;;;;;;5031819;28;20247;-72
2020/12/24 10:19:43;;;;;;;5.03;2.25;;;6.90;94.30;;;;;;5032021;28;20037;-72
2020/12/24 10:22:09;;;;;;;8.13;2.22;;;6.90;94.00;;;;;;5032163;28;20018;-73
2020/12/24 10:24:35;;;;;;;4.07;2.20;;;6.90;94.20;;;;;;5031500;28;20046;-74
2020/12/24 10:27:00;;;;;;;4.90;2.20;;;6.90;94.30;;;;;;5031767;28;20378;-73
2020/12/24 10:29:26;;;;;;;5.72;2.42;;;7.00;94.30;;;;;;5013858;28;20464;-73
2020/12/24 10:31:52;;;;;;;2.88;2.22;;;7.00;94.20;;;;;;5031198;28;20470;-73
2020/12/24 10:34:18;;;;;;;6.32;2.42;;;7.00;94.20;;;;;;5032451;28;20045;-76
2020/12/24 10:36:43;;;;;;;6.68;2.45;;;7.00;94.40;;;;;;5032037;28;20057;-73
2020/12/24 10:39:09;;;;;;;3.92;2.20;;;7.10;94.40;;;;;;5030875;28;20410;-73
2020/12/24 10:41:41;;;;;;;3.45;2.10;;;7.00;94.20;;;;;;5014364;28;20053;-75
2020/12/24 10:44:08;;;;;;;5.63;2.40;;;7.10;94.30;;;;;;5010813;28;20026;-74
2020/12/24 10:46:34;;;;;;;3.25;1.95;;;7.10;94.30;;;;;;5010228;28;20088;-75
2020/12/24 10:49:01;;;;;;;2.40;1.98;;;7.20;94.20;;;;;;5013711;28;20541;-73
2020/12/24 10:51:27;;;;;;;6.68;2.20;;;7.10;94.20;;;;;;5014306;28;20026;-74
2020/12/24 10:53:53;;;;;;;7.65;2.55;;;7.20;94.30;;;;;;5031591;28;20080;-76
2020/12/24 10:56:19;;;;;;;6.30;3.08;;;7.20;94.30;;;;;;5014703;28;20057;-76
2020/12/24 10:58:45;;;;;;;5.05;1.83;;;7.20;94.20;;;;;;5015348;28;20033;-75
2020/12/24 11:01:16;;;;;;;7.05;3.72;;;7.30;94.20;;;;;;5017890;28;20030;-78
2020/12/24 11:03:42;;;;;;;5.13;3.00;;;7.30;94.10;;;;;;5035829;28;20022;-75
2020/12/24 11:06:18;;;;;;;5.22;2.00;;;7.30;94.20;;;;;;5035036;28;20034;-77
2020/12/24 11:08:44;;;;;;;11.15;2.90;;;7.30;94.30;;;;;;5035153;28;20018;-74
2020/12/24 11:11:10;;;;;;;6.65;2.30;;;7.40;94.30;;;;;;5035272;28;20025;-75
2020/12/24 11:13:36;;;;;;;23.92;3.85;;;7.40;94.20;;;;;;5035369;28;20041;-74
2020/12/24 11:16:01;;;;;;;8.25;3.15;;;7.50;94.30;;;;;;5017827;28;20029;-73
2020/12/24 11:18:27;;;;;;;7.07;3.03;;;7.50;94.20;;;;;;5035157;28;20026;-74
2020/12/24 11:20:55;;;;;;;6.13;3.20;;;7.60;94.10;;;;;;5034952;28;20040;-74
2020/12/24 11:23:21;;;;;;;9.05;2.35;;;7.60;94.00;;;;;;5017692;28;20036;-73
2020/12/24 11:25:46;;;;;;;57.53;5.50;;;7.70;94.10;;;;;;5035101;28;20030;-77
2020/12/24 11:28:12;;;;;;;4.78;2.10;;;7.70;94.10;;;;;;5014795;28;20026;-79
2020/12/24 11:30:38;;;;;;;5.85;2.00;;;7.70;94.00;;;;;;5015423;28;20036;-74
2020/12/24 11:33:04;;;;;;;5.05;2.00;;;7.80;93.90;;;;;;5016818;28;20477;-73
2020/12/24 11:35:29;;;;;;;10.25;2.50;;;7.80;94.00;;;;;;5033929;28;20102;-71
2020/12/24 11:37:55;;;;;;;5.80;1.92;;;7.90;94.10;;;;;;5034519;28;20080;-71
2020/12/24 11:40:20;;;;;;;5.40;2.30;;;7.90;94.00;;;;;;5016776;28;20052;-71
2020/12/24 11:42:46;;;;;;;4.00;2.05;;;8.00;93.90;;;;;;5033801;28;20045;-71
2020/12/24 11:45:12;;;;;;;8.02;2.55;;;8.00;93.70;;;;;;5034586;28;20037;-73
2020/12/24 11:47:37;;;;;;;7.63;2.05;;;8.00;93.60;;;;;;5013102;28;20498;-74
2020/12/24 11:50:04;;;;;;;7.75;2.33;;;8.10;93.60;;;;;;5033488;28;20412;-73
2020/12/24 11:52:30;;;;;;;6.05;2.50;;;8.10;93.60;;;;;;5035298;28;20030;-73
2020/12/24 11:54:55;;;;;;;7.30;2.20;;;8.10;93.20;;;;;;5017236;28;20036;-72
2020/12/24 11:57:21;;;;;;;11.73;2.28;;;8.10;93.20;;;;;;5034056;28;20297;-73
2020/12/24 11:59:46;;;;;;;10.23;2.38;;;8.00;93.10;;;;;;5035265;28;20382;-73
2020/12/24 12:02:12;;;;;;;7.78;2.38;;;8.00;93.20;;;;;;5034082;28;20033;-73
2020/12/24 12:04:37;;;;;;;8.93;2.53;;;8.00;93.40;;;;;;5017380;28;20025;-75
2020/12/24 12:07:03;;;;;;;8.68;2.83;;;8.00;93.70;;;;;;5034797;28;20473;-72
2020/12/24 12:09:28;;;;;;;8.85;2.47;;;8.00;93.40;;;;;;5033828;28;20025;-72
2020/12/24 12:11:54;;;;;;;14.48;2.65;;;8.10;93.40;;;;;;5034430;28;20385;-72
2020/12/24 12:14:20;;;;;;;10.35;2.50;;;8.10;93.30;;;;;;5035002;28;20021;-72
2020/12/24 12:16:46;;;;;;;9.02;3.13;;;8.20;93.40;;;;;;5034082;28;20504;-73
2020/12/24 12:19:12;;;;;;;7.93;2.30;;;8.20;93.40;;;;;;5034536;28;20584;-71
2020/12/24 12:21:37;;;;;;;11.27;2.80;;;8.30;93.20;;;;;;5035045;28;20116;-72
2020/12/24 12:24:03;;;;;;;7.22;2.50;;;8.20;93.20;;;;;;5033631;28;20044;-73
2020/12/24 12:26:29;;;;;;;12.15;2.60;;;8.30;93.20;;;;;;5017002;28;20489;-72
2020/12/24 12:28:54;;;;;;;7.47;2.58;;;8.30;93.10;;;;;;5016380;28;20040;-73
2020/12/24 12:31:23;;;;;;;11.30;3.58;;;8.20;92.90;;;;;;5016120;28;20445;-72
2020/12/24 12:33:52;;;;;;;10.48;3.42;;;8.20;93.00;;;;;;5034708;28;20036;-73
2020/12/24 12:36:21;;;;;;;9.10;2.33;;;8.20;93.20;;;;;;5016918;28;20417;-73
2020/12/24 12:38:50;;;;;;;9.48;3.10;;;8.20;93.10;;;;;;5015962;28;20029;-73
2020/12/24 12:41:17;;;;;;;8.30;2.40;;;8.20;93.10;;;;;;5016111;28;20057;-73
2020/12/24 12:43:43;;;;;;;11.43;2.85;;;8.20;93.10;;;;;;5016353;28;20430;-73
2020/12/24 12:46:10;;;;;;;15.32;2.75;;;8.10;93.00;;;;;;5033423;28;20076;-72
2020/12/24 12:48:36;;;;;;;9.93;3.40;;;8.10;93.00;;;;;;5016554;28;20108;-72
2020/12/24 12:51:02;;;;;;;8.00;2.20;;;8.10;93.00;;;;;;5032912;28;20017;-71
2020/12/24 12:53:27;;;;;;;7.88;2.22;;;8.10;93.20;;;;;;5032783;28;20025;-71